createdAt,value
2019-04-22T00:00:51.444Z,65.44
2019-04-22T00:01:50.939Z,65.54
2019-04-22T00:02:54.255Z,65.34
2019-04-22T00:03:53.252Z,65.23
2019-04-22T00:05:01.179Z,65.13
2019-04-22T00:06:05.563Z,65.13
2019-04-22T00:07:09.750Z,65.00
2019-04-22T00:08:08.968Z,64.62
2019-04-22T00:09:15.960Z,65.34
2019-04-22T00:10:14.517Z,65.23
2019-04-22T00:11:19.547Z,65.13
2019-04-22T00:12:16.463Z,65.84
2019-04-22T00:13:22.184Z,65.54
2019-04-22T00:14:08.470Z,65.44
2019-04-22T00:15:11.608Z,65.34
2019-04-22T00:16:09.855Z,66.25
2019-04-22T00:17:19.999Z,65.84
2019-04-22T00:18:13.270Z,65.77
2019-04-22T00:19:20.871Z,65.47
2019-04-22T00:21:14.081Z,65.88
2019-04-22T00:22:17.933Z,66.69
2019-04-22T00:23:15.547Z,66.59
2019-04-22T00:24:14.025Z,66.69
2019-04-22T00:25:17.709Z,66.39
2019-04-22T00:26:16.136Z,66.08
2019-04-22T00:27:14.248Z,66.90
2019-04-22T00:28:20.062Z,66.39
2019-04-22T00:29:39.258Z,66.39
2019-04-22T00:30:17.806Z,66.69
2019-04-22T00:31:16.905Z,66.39
2019-04-22T00:32:11.410Z,66.08
2019-04-22T00:33:11.586Z,66.52
2019-04-22T00:34:11.171Z,67.03
2019-04-22T00:35:16.634Z,67.03
2019-04-22T00:36:08.786Z,67.75
2019-04-22T00:37:11.621Z,68.05
2019-04-22T00:38:17.673Z,68.05
2019-04-22T00:39:18.465Z,67.03
2019-04-22T00:40:14.312Z,68.29
2019-04-22T00:41:13.170Z,68.29
2019-04-22T00:42:14.742Z,69.21
2019-04-22T00:43:13.551Z,68.19
2019-04-22T00:44:21.978Z,68.80
2019-04-22T00:45:13.099Z,68.60
2019-04-22T00:46:15.038Z,68.29
2019-04-22T00:47:21.461Z,69.01
2019-04-22T00:48:17.847Z,68.90
2019-04-22T00:49:59.927Z,68.90
2019-04-22T00:51:15.681Z,68.49
2019-04-22T00:52:18.331Z,67.98
2019-04-22T00:53:19.684Z,67.47
2019-04-22T00:55:15.185Z,68.39
2019-04-22T00:56:10.955Z,68.80
2019-04-22T00:57:12.329Z,68.39
2019-04-22T00:58:22.497Z,68.70
2019-04-22T00:59:13.252Z,69.21
2019-04-22T01:00:11.970Z,68.52
2019-04-22T01:01:14.409Z,68.42
2019-04-22T01:02:13.145Z,69.72
2019-04-22T01:03:23.602Z,69.34
2019-04-22T01:05:16.753Z,70.29
2019-04-22T01:06:16.090Z,70.20
2019-04-22T01:07:12.901Z,70.09
2019-04-22T01:08:15.155Z,70.40
2019-04-22T01:09:10.713Z,70.40
2019-04-22T01:10:12.943Z,70.20
2019-04-22T01:11:16.856Z,70.29
2019-04-22T01:12:13.842Z,70.50
2019-04-22T01:13:16.705Z,70.71
2019-04-22T01:14:09.398Z,70.91
2019-04-22T01:15:19.189Z,70.64
2019-04-22T01:16:10.926Z,71.77
2019-04-22T01:17:11.737Z,71.01
2019-04-22T01:18:09.707Z,71.32
2019-04-22T01:19:07.645Z,69.89
2019-04-22T01:20:17.451Z,71.62
2019-04-22T01:21:17.480Z,70.61
2019-04-22T01:22:13.615Z,69.89
2019-04-22T01:23:11.261Z,70.03
2019-04-22T01:24:14.031Z,70.09
2019-04-22T01:25:07.982Z,69.68
2019-04-22T01:26:05.045Z,70.29
2019-04-22T01:27:05.088Z,71.53
2019-04-22T01:28:01.367Z,71.66
2019-04-22T01:29:01.055Z,70.33
2019-04-22T01:29:55.336Z,69.92
2019-04-22T01:30:55.666Z,70.53
2019-04-22T01:31:48.865Z,70.74
2019-04-22T01:32:50.299Z,70.84
2019-04-22T01:34:00.499Z,70.33
2019-04-22T01:35:02.386Z,71.66
2019-04-22T01:36:08.041Z,71.15
2019-04-22T01:37:03.527Z,70.74
2019-04-22T01:38:01.508Z,71.56
2019-04-22T01:39:12.945Z,70.43
2019-04-22T01:40:09.885Z,70.12
2019-04-22T01:41:19.235Z,69.82
2019-04-22T01:42:10.499Z,70.33
2019-04-22T01:43:22.902Z,70.74
2019-04-22T01:45:13.955Z,70.36
2019-04-22T01:46:23.494Z,70.36
2019-04-22T01:47:13.507Z,70.26
2019-04-22T01:48:11.183Z,70.57
2019-04-22T01:49:15.992Z,69.61
2019-04-22T01:50:15.216Z,69.24
2019-04-22T01:51:07.890Z,68.93
2019-04-22T01:52:12.872Z,70.06
2019-04-22T01:53:14.700Z,70.26
2019-04-22T01:55:18.994Z,70.06
2019-04-22T01:56:13.622Z,70.40
2019-04-22T01:57:16.140Z,69.95
2019-04-22T01:58:06.294Z,71.08
2019-04-22T01:59:06.229Z,70.47
2019-04-22T02:00:09.459Z,70.36
2019-04-22T02:01:16.005Z,70.77
2019-04-22T02:02:09.207Z,69.95
2019-04-22T02:03:12.619Z,71.01
2019-04-22T02:04:17.772Z,70.70
2019-04-22T02:05:15.767Z,70.50
2019-04-22T02:06:17.854Z,71.73
2019-04-22T02:07:17.994Z,71.42
2019-04-22T02:08:14.181Z,71.62
2019-04-22T02:09:17.795Z,70.91
2019-04-22T02:10:15.102Z,72.11
2019-04-22T02:11:14.629Z,72.14
2019-04-22T02:12:13.754Z,71.83
2019-04-22T02:13:17.093Z,71.73
2019-04-22T02:14:13.270Z,72.20
2019-04-22T02:15:12.491Z,72.11
2019-04-22T02:16:14.531Z,72.24
2019-04-22T02:18:18.086Z,73.36
2019-04-22T02:19:19.086Z,73.57
2019-04-22T02:20:12.035Z,72.82
2019-04-22T02:21:07.300Z,73.36
2019-04-22T02:22:38.044Z,73.95
2019-04-22T02:23:31.400Z,73.95
2019-04-22T02:24:08.996Z,73.44
2019-04-22T02:25:18.262Z,73.54
2019-04-22T02:26:31.591Z,73.23
2019-04-22T02:27:17.456Z,73.23
2019-04-22T02:29:16.817Z,72.72
2019-04-22T02:30:05.478Z,72.41
2019-04-22T02:33:45.928Z,73.64
2019-04-22T02:34:35.168Z,73.95
2019-04-22T02:35:24.125Z,73.74
2019-04-22T02:36:22.591Z,73.33
2019-04-22T02:38:34.460Z,73.50
2019-04-22T02:39:19.795Z,72.38
2019-04-22T02:40:17.127Z,72.11
2019-04-22T02:43:29.110Z,71.59
2019-04-22T02:44:16.770Z,72.11
2019-04-22T02:45:18.210Z,72.31
2019-04-22T02:48:40.028Z,72.75
2019-04-22T02:50:09.073Z,73.78
2019-04-22T02:52:20.398Z,73.47
2019-04-22T02:53:29.804Z,73.50
2019-04-22T02:54:33.891Z,74.32
2019-04-22T02:55:15.545Z,74.94
2019-04-22T02:57:22.723Z,74.57
2019-04-22T02:58:27.236Z,74.32
2019-04-22T03:00:21.621Z,74.53
2019-04-22T03:01:27.537Z,74.02
2019-04-22T03:02:21.338Z,74.43
2019-04-22T03:04:22.697Z,75.15
2019-04-22T03:05:18.791Z,75.38
2019-04-22T03:06:24.134Z,75.35
2019-04-22T03:07:12.482Z,75.15
2019-04-22T03:09:19.033Z,75.49
2019-04-22T03:10:26.708Z,75.49
2019-04-22T03:11:19.046Z,76.41
2019-04-22T03:12:21.542Z,75.52
2019-04-22T03:13:29.184Z,75.49
2019-04-22T03:14:22.350Z,76.10
2019-04-22T03:15:12.049Z,75.83
2019-04-22T03:18:20.372Z,75.93
2019-04-22T03:22:28.513Z,76.28
2019-04-22T03:23:25.122Z,76.86
2019-04-22T03:26:27.248Z,75.93
2019-04-22T03:28:18.760Z,75.49
2019-04-22T03:29:18.029Z,75.52
2019-04-22T03:31:40.728Z,75.62
2019-04-22T03:32:40.295Z,75.93
2019-04-22T03:33:36.249Z,76.24
2019-04-22T03:35:13.331Z,75.62
2019-04-22T03:38:34.114Z,74.49
2019-04-22T03:40:22.761Z,75.42
2019-04-22T03:41:27.289Z,75.08
2019-04-22T03:42:14.945Z,75.32
2019-04-22T03:43:14.146Z,75.52
2019-04-22T03:45:28.029Z,76.34
2019-04-22T03:46:17.027Z,75.62
2019-04-22T03:47:26.341Z,76.65
2019-04-22T03:48:21.079Z,75.93
2019-04-22T03:49:28.229Z,75.73
2019-04-22T03:50:20.655Z,76.48
2019-04-22T03:51:27.306Z,77.26
2019-04-22T03:52:15.858Z,76.75
2019-04-22T03:53:14.972Z,76.45
2019-04-22T03:55:16.076Z,76.24
2019-04-22T03:56:36.535Z,76.34
2019-04-22T03:58:05.453Z,76.96
2019-04-22T04:00:25.071Z,76.55
2019-04-22T04:01:21.946Z,76.55
2019-04-22T04:02:21.579Z,76.55
2019-04-22T04:04:26.048Z,77.71
2019-04-22T04:06:17.982Z,78.02
2019-04-22T04:07:40.642Z,77.81
2019-04-22T04:08:22.326Z,78.43
2019-04-22T04:09:24.242Z,78.43
2019-04-22T04:11:45.132Z,78.33
2019-04-22T04:12:29.598Z,78.43
2019-04-22T04:13:20.508Z,78.47
2019-04-22T04:16:19.515Z,79.49
2019-04-22T04:18:09.136Z,79.08
2019-04-22T04:19:23.383Z,78.47
2019-04-22T04:20:21.428Z,79.36
2019-04-22T04:21:26.720Z,79.15
2019-04-22T04:22:30.245Z,79.05
2019-04-22T04:23:37.952Z,78.39
2019-04-22T04:25:27.563Z,79.25
2019-04-22T04:26:28.836Z,79.46
2019-04-22T04:27:37.099Z,79.15
2019-04-22T04:29:36.050Z,79.01
2019-04-22T04:30:23.660Z,78.43
2019-04-22T04:31:30.119Z,78.39
2019-04-22T04:34:28.676Z,77.88
2019-04-22T04:36:16.561Z,77.98
2019-04-22T04:38:11.465Z,78.09
2019-04-22T04:39:07.462Z,77.88
2019-04-22T04:40:25.066Z,77.26
2019-04-22T04:43:18.744Z,77.37
2019-04-22T04:44:22.718Z,77.68
2019-04-22T04:45:41.142Z,77.47
2019-04-22T04:46:27.166Z,77.78
2019-04-22T04:47:29.231Z,77.47
2019-04-22T04:49:24.284Z,77.33
2019-04-22T04:50:16.010Z,76.82
2019-04-22T04:51:26.940Z,76.92
2019-04-22T04:52:32.147Z,77.33
2019-04-22T04:53:20.546Z,76.92
2019-04-22T04:55:28.584Z,77.13
2019-04-22T04:56:27.829Z,76.37
2019-04-22T04:57:23.520Z,76.58
2019-04-22T04:58:27.244Z,76.78
2019-04-22T04:59:30.343Z,76.27
2019-04-22T05:00:40.154Z,77.09
2019-04-22T05:02:20.187Z,76.07
2019-04-22T05:03:21.266Z,76.89
2019-04-22T05:05:20.656Z,76.58
2019-04-22T05:07:38.225Z,77.16
2019-04-22T05:10:26.387Z,76.24
2019-04-22T05:11:30.747Z,75.59
2019-04-22T05:12:27.515Z,74.53
2019-04-22T05:13:43.142Z,75.24
2019-04-22T05:15:21.600Z,75.14
2019-04-22T05:16:25.594Z,74.69
2019-04-22T05:17:18.538Z,74.53
2019-04-22T05:18:12.528Z,74.19
2019-04-22T05:19:16.018Z,74.80
2019-04-22T05:21:16.349Z,74.29
2019-04-22T05:22:28.338Z,74.19
2019-04-22T05:23:20.778Z,74.29
2019-04-22T05:24:16.573Z,74.39
2019-04-22T05:25:15.191Z,73.88
2019-04-22T05:26:13.828Z,73.98
2019-04-22T05:27:32.661Z,73.78
2019-04-22T05:28:10.354Z,74.29
2019-04-22T05:29:11.418Z,73.44
2019-04-22T05:30:23.509Z,74.60
2019-04-22T05:31:16.009Z,74.60
2019-04-22T05:32:08.894Z,74.15
2019-04-22T05:33:09.224Z,74.35
2019-04-22T05:34:08.173Z,74.05
2019-04-22T05:36:15.792Z,73.61
2019-04-22T05:37:07.620Z,73.85
2019-04-22T05:38:20.162Z,73.74
2019-04-22T05:39:13.969Z,73.30
2019-04-22T05:40:16.300Z,73.10
2019-04-22T05:41:13.784Z,73.61
2019-04-22T05:42:08.556Z,73.50
2019-04-22T05:43:09.398Z,73.20
2019-04-22T05:44:08.643Z,73.20
2019-04-22T05:45:14.880Z,72.96
2019-04-22T05:46:09.162Z,72.48
2019-04-22T05:47:08.447Z,72.65
2019-04-22T05:48:09.400Z,72.65
2019-04-22T05:49:16.483Z,72.34
2019-04-22T05:50:07.582Z,73.06
2019-04-22T05:51:12.865Z,72.52
2019-04-22T05:52:11.133Z,72.14
2019-04-22T05:53:19.847Z,71.94
2019-04-22T05:54:02.583Z,72.11
2019-04-22T05:55:13.910Z,71.70
2019-04-22T05:56:13.937Z,71.91
2019-04-22T05:57:14.543Z,71.80
2019-04-22T05:58:12.327Z,71.70
2019-04-22T05:59:14.730Z,71.91
2019-04-22T06:00:17.988Z,70.98
2019-04-22T06:02:11.142Z,71.97
2019-04-22T06:03:21.089Z,71.77
2019-04-22T06:04:10.848Z,70.34
2019-04-22T06:05:10.145Z,70.85
2019-04-22T06:06:12.013Z,71.46
2019-04-22T06:07:09.696Z,71.12
2019-04-22T06:08:04.176Z,69.79
2019-04-22T06:09:10.984Z,70.20
2019-04-22T06:10:15.833Z,69.69
2019-04-22T06:11:17.162Z,69.56
2019-04-22T06:12:04.995Z,69.49
2019-04-22T06:13:04.711Z,70.10
2019-04-22T06:14:07.618Z,70.17
2019-04-22T06:15:05.067Z,69.79
2019-04-22T06:16:09.449Z,69.05
2019-04-22T06:17:10.764Z,69.46
2019-04-22T06:20:09.185Z,69.79
2019-04-22T06:21:11.286Z,69.76
2019-04-22T06:22:17.506Z,70.17
2019-04-22T06:23:15.821Z,69.96
2019-04-22T06:25:09.114Z,68.74
2019-04-22T06:26:35.857Z,69.46
2019-04-22T06:27:16.002Z,68.95
2019-04-22T06:28:15.036Z,69.76
2019-04-22T06:29:19.407Z,68.74
2019-04-22T06:30:10.863Z,68.84
2019-04-22T06:31:10.782Z,69.05
2019-04-22T06:32:23.287Z,68.30
2019-04-22T06:33:15.183Z,68.23
2019-04-22T06:34:10.534Z,68.23
2019-04-22T06:35:16.619Z,69.05
2019-04-22T06:36:08.147Z,68.13
2019-04-22T06:37:13.394Z,68.40
2019-04-22T06:38:28.611Z,68.20
2019-04-22T06:39:14.630Z,68.71
2019-04-22T06:40:16.489Z,68.20
2019-04-22T06:42:19.243Z,67.99
2019-04-22T06:43:13.586Z,67.38
2019-04-22T06:44:12.982Z,67.38
2019-04-22T06:45:12.102Z,67.79
2019-04-22T06:46:09.888Z,67.66
2019-04-22T06:47:40.071Z,67.25
2019-04-22T06:48:08.097Z,66.91
2019-04-22T06:49:09.638Z,67.15
2019-04-22T06:50:07.638Z,67.02
2019-04-22T06:51:06.754Z,67.12
2019-04-22T06:52:16.870Z,66.41
2019-04-22T06:53:09.278Z,66.20
2019-04-22T06:54:07.247Z,65.97
2019-04-22T06:55:10.210Z,66.27
2019-04-22T06:56:06.670Z,65.46
2019-04-22T06:57:06.137Z,65.05
2019-04-22T06:58:10.706Z,65.33
2019-04-22T06:59:06.902Z,65.02
2019-04-22T07:00:10.691Z,65.22
2019-04-22T07:01:09.511Z,64.61
2019-04-22T07:02:11.663Z,64.38
2019-04-22T07:03:28.506Z,63.87
2019-04-22T07:04:08.066Z,63.97
2019-04-22T07:05:07.861Z,63.46
2019-04-22T07:06:11.478Z,63.23
2019-04-22T07:07:08.378Z,63.23
2019-04-22T07:08:04.100Z,63.33
2019-04-22T07:10:15.124Z,62.59
2019-04-22T07:11:04.600Z,62.90
2019-04-22T07:12:13.093Z,62.49
2019-04-22T07:13:11.507Z,62.49
2019-04-22T07:14:04.235Z,61.65
2019-04-22T07:15:21.832Z,61.24
2019-04-22T07:16:03.993Z,61.34
2019-04-22T07:17:10.235Z,61.52
2019-04-22T07:18:13.259Z,61.34
2019-04-22T07:19:07.685Z,60.50
2019-04-22T07:20:10.616Z,60.10
2019-04-22T07:21:06.402Z,59.77
2019-04-22T07:22:11.313Z,59.46
2019-04-22T07:23:13.769Z,59.46
2019-04-22T07:24:35.205Z,59.12
2019-04-22T07:25:06.608Z,59.03
2019-04-22T07:26:08.597Z,58.31
2019-04-22T07:27:12.981Z,57.91
2019-04-22T07:28:05.199Z,58.31
2019-04-22T07:29:10.435Z,58.82
2019-04-22T07:31:13.004Z,57.78
2019-04-22T07:32:07.837Z,57.37
2019-04-22T07:34:17.838Z,57.17
2019-04-22T07:35:08.716Z,56.84
2019-04-22T07:38:11.134Z,56.01
2019-04-22T07:39:10.509Z,55.70
2019-04-22T07:40:02.330Z,56.01
2019-04-22T07:41:05.413Z,56.41
2019-04-22T07:42:12.686Z,56.10
2019-04-22T07:43:11.954Z,54.76
2019-04-22T07:45:10.147Z,54.66
2019-04-22T07:46:09.568Z,54.56
2019-04-22T07:47:13.970Z,54.26
2019-04-22T07:48:22.547Z,54.66
2019-04-22T07:49:10.585Z,54.03
2019-04-22T07:50:13.142Z,54.03
2019-04-22T07:51:07.670Z,52.41
2019-04-22T07:52:11.101Z,53.72
2019-04-22T07:53:05.352Z,53.40
2019-04-22T07:54:06.280Z,53.50
2019-04-22T07:55:04.147Z,52.89
2019-04-22T07:56:05.290Z,52.99
2019-04-22T07:57:15.087Z,51.65
2019-04-22T07:58:16.784Z,53.07
2019-04-22T07:59:09.567Z,53.17
2019-04-22T08:00:12.702Z,52.46
2019-04-22T08:01:12.955Z,52.56
2019-04-22T08:02:09.345Z,50.95
2019-04-22T08:03:11.851Z,50.92
2019-04-22T08:04:17.734Z,51.03
2019-04-22T08:05:12.732Z,50.52
2019-04-22T08:06:11.727Z,50.62
2019-04-22T08:07:24.113Z,49.89
2019-04-22T08:08:17.359Z,48.98
2019-04-22T08:09:15.279Z,49.79
2019-04-22T08:10:21.242Z,50.27
2019-04-22T08:11:21.565Z,49.46
2019-04-22T08:12:02.531Z,49.26
2019-04-22T08:13:05.677Z,48.85
2019-04-22T08:14:12.499Z,49.66
2019-04-22T08:15:08.303Z,48.53
2019-04-22T08:17:30.823Z,46.71
2019-04-22T08:18:15.199Z,47.42
2019-04-22T08:19:08.883Z,47.22
2019-04-22T08:20:09.230Z,46.19
2019-04-22T08:21:07.547Z,46.69
2019-04-22T08:22:23.992Z,46.19
2019-04-22T08:23:09.061Z,45.16
2019-04-22T08:24:06.222Z,44.85
2019-04-22T08:25:00.321Z,45.46
2019-04-22T08:26:06.057Z,45.36
2019-04-22T08:28:10.444Z,44.75
2019-04-22T08:31:10.820Z,44.83
2019-04-22T08:32:05.008Z,44.43
2019-04-22T08:33:10.875Z,43.42
2019-04-22T08:34:08.178Z,43.32
2019-04-22T08:35:15.872Z,43.73
2019-04-22T08:37:35.675Z,43.91
2019-04-22T08:38:06.833Z,42.60
2019-04-22T08:39:07.891Z,41.99
2019-04-22T08:40:12.616Z,41.57
2019-04-22T08:41:08.382Z,41.65
2019-04-22T08:42:11.511Z,41.15
2019-04-22T08:43:12.597Z,41.55
2019-04-22T08:45:28.489Z,40.62
2019-04-22T08:46:10.928Z,41.25
2019-04-22T08:47:11.217Z,40.33
2019-04-22T08:48:12.978Z,40.83
2019-04-22T08:49:05.667Z,40.73
2019-04-22T08:50:12.016Z,39.80
2019-04-22T08:51:12.246Z,39.90
2019-04-22T08:52:08.702Z,39.28
2019-04-22T08:53:08.973Z,38.48
2019-04-22T08:54:11.800Z,38.18
2019-04-22T08:55:12.919Z,37.96
2019-04-22T08:56:21.561Z,37.96
2019-04-22T08:57:31.855Z,37.96
2019-04-22T08:59:08.942Z,37.44
2019-04-22T09:00:06.836Z,37.24
2019-04-22T09:01:11.263Z,37.63
2019-04-22T09:02:12.069Z,36.33
2019-04-22T09:03:10.766Z,36.93
2019-04-22T09:05:18.938Z,36.92
2019-04-22T09:06:15.711Z,36.92
2019-04-22T09:09:09.750Z,36.10
2019-04-22T09:10:24.152Z,34.99
2019-04-22T09:11:08.199Z,35.50
2019-04-22T09:12:10.389Z,36.28
2019-04-22T09:14:14.087Z,34.48
2019-04-22T09:15:07.716Z,35.08
2019-04-22T09:16:12.396Z,35.28
2019-04-22T09:17:13.470Z,35.18
2019-04-22T09:18:11.133Z,35.66
2019-04-22T09:19:08.930Z,35.26
2019-04-22T09:20:10.977Z,34.96
2019-04-22T09:21:13.073Z,35.66
2019-04-22T09:23:12.898Z,35.25
2019-04-22T09:24:10.604Z,34.24
2019-04-22T09:25:03.134Z,34.05
2019-04-22T09:26:10.714Z,34.33
2019-04-22T09:27:15.778Z,33.03
2019-04-22T09:28:07.344Z,33.11
2019-04-22T09:29:14.571Z,32.31
2019-04-22T09:30:10.240Z,33.83
2019-04-22T09:31:06.609Z,33.03
2019-04-22T09:33:21.039Z,33.33
2019-04-22T09:34:06.807Z,34.03
2019-04-22T09:35:02.604Z,33.73
2019-04-22T09:37:18.067Z,33.93
2019-04-22T09:38:23.735Z,33.31
2019-04-22T09:39:12.312Z,32.71
2019-04-22T09:40:13.964Z,32.71
2019-04-22T09:41:10.377Z,33.01
2019-04-22T09:42:06.201Z,33.21
2019-04-22T09:43:04.957Z,32.59
2019-04-22T09:44:02.358Z,32.20
2019-04-22T09:45:06.081Z,32.29
2019-04-22T09:46:06.542Z,32.50
2019-04-22T09:47:08.008Z,32.89
2019-04-22T09:48:08.698Z,31.98
2019-04-22T09:49:12.385Z,29.68
2019-04-22T09:50:24.318Z,29.57
2019-04-22T09:51:05.655Z,28.16
2019-04-22T09:52:02.944Z,29.46
2019-04-22T09:53:08.436Z,28.25
2019-04-22T09:56:03.675Z,28.53
2019-04-22T09:57:04.043Z,28.22
2019-04-22T09:58:07.211Z,27.51
2019-04-22T09:59:05.056Z,26.42
2019-04-22T10:00:12.264Z,27.22
2019-04-22T10:01:12.880Z,26.62
2019-04-22T10:02:19.751Z,26.62
2019-04-22T10:03:07.134Z,26.52
2019-04-22T10:04:18.393Z,25.52
2019-04-22T10:05:09.061Z,26.12
2019-04-22T10:06:16.522Z,26.32
2019-04-22T10:07:13.860Z,26.32
2019-04-22T10:08:09.566Z,26.42
2019-04-22T10:09:25.973Z,25.31
2019-04-22T10:10:10.006Z,25.51
2019-04-22T10:11:15.396Z,25.51
2019-04-22T10:12:02.847Z,25.42
2019-04-22T10:13:07.904Z,25.91
2019-04-22T10:14:05.840Z,25.31
2019-04-22T10:15:19.634Z,24.62
2019-04-22T10:16:12.154Z,25.21
2019-04-22T10:17:23.771Z,25.31
2019-04-22T10:18:09.750Z,25.31
2019-04-22T10:19:04.643Z,24.80
2019-04-22T10:20:05.635Z,24.79
2019-04-22T10:21:08.427Z,24.89
2019-04-22T10:22:05.245Z,25.19
2019-04-22T10:23:06.216Z,25.09
2019-04-22T10:25:04.894Z,25.19
2019-04-22T10:26:05.126Z,25.19
2019-04-22T10:27:03.959Z,25.19
2019-04-22T10:28:09.194Z,25.49
2019-04-22T10:29:24.809Z,25.29
2019-04-22T10:30:16.848Z,24.89
2019-04-22T10:31:19.225Z,25.89
2019-04-22T10:32:07.070Z,24.99
2019-04-22T10:33:03.323Z,24.99
2019-04-22T10:33:56.090Z,25.89
2019-04-22T10:34:47.317Z,25.68
2019-04-22T10:35:41.393Z,25.57
2019-04-22T10:36:39.766Z,25.07
2019-04-22T10:37:40.571Z,25.67
2019-04-22T10:38:40.196Z,25.57
2019-04-22T10:39:46.116Z,25.86
2019-04-22T10:40:40.763Z,26.06
2019-04-22T10:41:39.222Z,25.85
2019-04-22T10:42:39.300Z,25.85
2019-04-22T10:43:39.303Z,25.45
2019-04-22T10:44:39.297Z,25.24
2019-04-22T10:45:39.884Z,25.35
2019-04-22T10:46:40.247Z,25.34
2019-04-22T10:47:40.382Z,25.45
2019-04-22T10:48:40.123Z,24.95
2019-04-22T10:49:40.386Z,24.35
2019-04-22T10:50:39.691Z,24.35
2019-04-22T10:51:40.385Z,24.46
2019-04-22T10:52:39.402Z,24.85
2019-04-22T10:53:39.639Z,24.35
2019-04-22T10:54:39.080Z,25.25
2019-04-22T10:55:42.195Z,25.25
2019-04-22T10:56:39.184Z,24.95
2019-04-22T10:57:39.110Z,25.54
2019-04-22T10:58:40.350Z,24.44
2019-04-22T10:59:40.625Z,23.83
2019-04-22T11:00:39.751Z,24.13
2019-04-22T11:01:40.253Z,23.43
2019-04-22T11:02:39.454Z,23.23
2019-04-22T11:03:39.502Z,24.11
2019-04-22T11:04:40.382Z,24.32
2019-04-22T11:05:39.932Z,24.32
2019-04-22T11:06:47.532Z,24.43
2019-04-22T11:07:48.746Z,24.83
2019-04-22T11:08:46.584Z,24.23
2019-04-22T11:09:50.749Z,23.93
2019-04-22T11:10:56.644Z,24.02
2019-04-22T11:11:48.784Z,23.82
2019-04-22T11:12:41.300Z,23.13
2019-04-22T11:13:39.893Z,23.33
2019-04-22T11:14:42.757Z,23.63
2019-04-22T11:15:38.833Z,23.82
2019-04-22T11:16:39.504Z,23.43
2019-04-22T11:17:39.701Z,24.22
2019-04-22T11:18:38.838Z,23.33
2019-04-22T11:19:39.494Z,23.93
2019-04-22T11:20:39.790Z,23.33
2019-04-22T11:21:38.820Z,23.43
2019-04-22T11:22:39.257Z,23.13
2019-04-22T11:23:38.747Z,23.23
2019-04-22T11:24:38.964Z,23.93
2019-04-22T11:25:39.626Z,23.72
2019-04-22T11:26:38.908Z,23.82
2019-04-22T11:27:39.083Z,24.22
2019-04-22T11:28:38.718Z,24.22
2019-04-22T11:29:39.381Z,23.52
2019-04-22T11:30:38.882Z,24.22
2019-04-22T11:31:38.842Z,23.41
2019-04-22T11:32:38.639Z,23.32
2019-04-22T11:33:38.729Z,23.22
2019-04-22T11:34:39.386Z,22.82
2019-04-22T11:35:39.629Z,23.52
2019-04-22T11:36:38.978Z,23.22
2019-04-22T11:37:38.808Z,23.22
2019-04-22T11:38:45.892Z,23.41
2019-04-22T11:39:40.760Z,22.50
2019-04-22T11:40:43.899Z,22.70
2019-04-22T11:41:40.221Z,23.00
2019-04-22T11:42:38.619Z,22.60
2019-04-22T11:43:38.989Z,22.11
2019-04-22T11:44:39.169Z,22.60
2019-04-22T11:45:39.610Z,22.80
2019-04-22T11:46:39.221Z,23.10
2019-04-22T11:47:39.354Z,23.00
2019-04-22T11:48:39.788Z,22.69
2019-04-22T11:49:39.633Z,21.91
2019-04-22T11:50:39.907Z,21.71
2019-04-22T11:51:38.433Z,21.80
2019-04-22T11:52:38.475Z,22.29
2019-04-22T11:53:38.708Z,23.18
2019-04-22T11:54:38.874Z,22.69
2019-04-22T11:55:38.393Z,22.59
2019-04-22T11:56:38.891Z,22.29
2019-04-22T11:57:39.215Z,22.78
2019-04-22T11:58:39.045Z,22.89
2019-04-22T11:59:38.579Z,22.59
2019-04-22T12:00:38.939Z,22.78
2019-04-22T12:01:39.025Z,22.78
2019-04-22T12:02:38.777Z,23.28
2019-04-22T12:03:39.900Z,23.37
2019-04-22T12:04:38.286Z,23.18
2019-04-22T12:05:39.631Z,23.18
2019-04-22T12:06:38.263Z,22.58
2019-04-22T12:07:39.008Z,23.18
2019-04-22T12:08:39.681Z,23.18
2019-04-22T12:09:39.517Z,23.37
2019-04-22T12:10:46.910Z,23.37
2019-04-22T12:11:40.515Z,22.77
2019-04-22T12:12:39.596Z,22.78
2019-04-22T12:13:38.187Z,22.97
2019-04-22T12:14:38.313Z,22.38
2019-04-22T12:15:38.169Z,23.77
2019-04-22T12:16:39.369Z,23.37
2019-04-22T12:17:38.222Z,23.27
2019-04-22T12:18:39.608Z,23.26
2019-04-22T12:19:38.123Z,23.25
2019-04-22T12:20:39.164Z,22.85
2019-04-22T12:21:39.362Z,22.95
2019-04-22T12:22:38.896Z,23.14
2019-04-22T12:23:39.144Z,22.64
2019-04-22T12:24:38.461Z,22.15
2019-04-22T12:25:46.427Z,22.15
2019-04-22T12:26:40.063Z,22.64
2019-04-22T12:27:38.966Z,22.75
2019-04-22T12:28:39.210Z,22.74
2019-04-22T12:29:38.668Z,22.94
2019-04-22T12:30:39.346Z,22.44
2019-04-22T12:31:38.033Z,22.93
2019-04-22T12:32:39.029Z,22.73
2019-04-22T12:33:39.198Z,22.73
2019-04-22T12:34:39.655Z,22.44
2019-04-22T12:35:38.782Z,22.44
2019-04-22T12:36:38.452Z,22.53
2019-04-22T12:37:47.105Z,22.53
2019-04-22T12:38:39.948Z,22.44
2019-04-22T12:39:39.157Z,22.64
2019-04-22T12:40:45.422Z,22.84
2019-04-22T12:41:40.145Z,23.22
2019-04-22T12:42:39.341Z,22.52
2019-04-22T12:43:38.735Z,22.62
2019-04-22T12:44:40.395Z,22.62
2019-04-22T12:45:38.503Z,23.11
2019-04-22T12:46:38.356Z,23.30
2019-04-22T12:47:38.124Z,22.60
2019-04-22T12:48:39.120Z,22.80
2019-04-22T12:49:40.655Z,22.50
2019-04-22T12:50:40.818Z,22.60
2019-04-22T12:51:38.894Z,21.91
2019-04-22T12:52:45.784Z,22.41
2019-04-22T12:53:40.104Z,22.51
2019-04-22T12:54:39.090Z,22.51
2019-04-22T12:55:37.778Z,22.23
2019-04-22T12:56:37.727Z,23.11
2019-04-22T12:57:38.893Z,22.92
2019-04-22T12:58:38.031Z,22.22
2019-04-22T12:59:37.686Z,22.11
2019-04-22T13:00:38.420Z,22.00
2019-04-22T13:01:38.920Z,21.21
2019-04-22T13:02:38.850Z,21.70
2019-04-22T13:03:38.266Z,21.60
2019-04-22T13:04:38.502Z,21.80
2019-04-22T13:05:37.680Z,22.59
2019-04-22T13:06:37.651Z,21.60
2019-04-22T13:07:38.041Z,21.50
2019-04-22T13:08:38.078Z,21.70
2019-04-22T13:09:38.979Z,21.20
2019-04-22T13:10:45.611Z,21.20
2019-04-22T13:11:40.268Z,21.50
2019-04-22T13:12:37.570Z,21.29
2019-04-22T13:13:38.724Z,20.80
2019-04-22T13:14:38.944Z,21.30
2019-04-22T13:15:39.103Z,21.30
2019-04-22T13:16:38.620Z,20.51
2019-04-22T13:17:37.935Z,20.90
2019-04-22T13:18:44.290Z,20.51
2019-04-22T13:19:38.486Z,20.50
2019-04-22T13:20:38.659Z,20.70
2019-04-22T13:21:38.504Z,19.90
2019-04-22T13:22:38.777Z,19.80
2019-04-22T13:23:38.941Z,19.98
2019-04-22T13:24:37.408Z,19.98
2019-04-22T13:25:38.788Z,20.09
2019-04-22T13:26:38.116Z,20.17
2019-04-22T13:27:37.383Z,19.68
2019-04-22T13:28:38.865Z,19.88
2019-04-22T13:29:37.392Z,19.18
2019-04-22T13:30:38.631Z,19.48
2019-04-22T13:31:37.347Z,19.37
2019-04-22T13:32:38.674Z,20.17
2019-04-22T13:33:38.539Z,19.07
2019-04-22T13:34:42.294Z,19.06
2019-04-22T13:35:39.457Z,19.26
2019-04-22T13:36:40.029Z,20.04
2019-04-22T13:37:37.275Z,19.06
2019-04-22T13:38:38.639Z,19.27
2019-04-22T13:39:37.311Z,19.87
2019-04-22T13:40:37.253Z,19.67
2019-04-22T13:41:43.997Z,20.06
2019-04-22T13:42:38.230Z,19.66
2019-04-22T13:43:38.722Z,19.07
2019-04-22T13:44:37.714Z,20.36
2019-04-22T13:45:38.579Z,19.17
2019-04-22T13:46:38.772Z,19.26
2019-04-22T13:47:55.761Z,18.83
2019-04-22T13:48:59.099Z,17.92
2019-04-22T13:50:17.196Z,17.31
2019-04-22T13:52:19.165Z,16.78
2019-04-22T13:53:23.353Z,15.89
2019-04-22T13:55:01.753Z,15.60
2019-04-22T13:56:57.066Z,16.58
2019-04-22T13:57:53.385Z,15.78
2019-04-22T13:58:52.860Z,16.19
2019-04-22T13:59:44.084Z,16.20
2019-04-22T14:00:38.443Z,16.11
2019-04-22T14:01:37.018Z,16.80
2019-04-22T14:02:37.047Z,17.39
2019-04-22T14:03:37.896Z,17.59
2019-04-22T14:04:37.029Z,18.08
2019-04-22T14:05:37.238Z,17.20
2019-04-22T14:06:36.966Z,17.39
2019-04-22T14:07:37.121Z,16.78
2019-04-22T14:08:37.568Z,16.97
2019-04-22T14:09:38.212Z,16.66
2019-04-22T14:10:38.480Z,15.97
2019-04-22T14:11:48.824Z,16.83
2019-04-22T14:12:39.124Z,16.34
2019-04-22T14:13:37.780Z,16.53
2019-04-22T14:14:39.307Z,15.94
2019-04-22T14:15:38.108Z,15.44
2019-04-22T14:16:37.175Z,15.64
2019-04-22T14:17:36.876Z,15.75
2019-04-22T14:18:37.069Z,15.87
2019-04-22T14:19:36.839Z,15.47
2019-04-22T14:20:36.920Z,15.26
2019-04-22T14:21:36.930Z,15.08
2019-04-22T14:22:36.818Z,15.08
2019-04-22T14:23:38.351Z,15.28
2019-04-22T14:24:36.827Z,15.08
2019-04-22T14:25:36.868Z,15.25